sensor_id;sensor_type;location;lat;lon;timestamp;temperature;humidity
9772;DHT22;4925;52.588;13.370;2022-07-03T00:00:34;20.00;96.10
9772;DHT22;4925;52.588;13.370;2022-07-03T00:03:00;20.00;96.40
9772;DHT22;4925;52.588;13.370;2022-07-03T00:05:25;19.90;96.70
9772;DHT22;4925;52.588;13.370;2022-07-03T00:07:51;19.90;96.80
9772;DHT22;4925;52.588;13.370;2022-07-03T00:10:16;21.90;98.30
9772;DHT22;4925;52.588;13.370;2022-07-03T00:12:42;19.90;97.40
9772;DHT22;4925;52.588;13.370;2022-07-03T00:15:08;19.80;97.40
9772;DHT22;4925;52.588;13.370;2022-07-03T00:17:34;19.90;97.70
9772;DHT22;4925;52.588;13.370;2022-07-03T00:19:59;19.80;97.30
9772;DHT22;4925;52.588;13.370;2022-07-03T00:22:26;19.80;97.40
9772;DHT22;4925;52.588;13.370;2022-07-03T00:24:55;19.70;97.20
9772;DHT22;4925;52.588;13.370;2022-07-03T00:27:25;19.70;97.30
9772;DHT22;4925;52.588;13.370;2022-07-03T00:29:55;19.70;97.60
9772;DHT22;4925;52.588;13.370;2022-07-03T00:32:23;19.60;97.80
9772;DHT22;4925;52.588;13.370;2022-07-03T00:34:51;19.60;98.30
9772;DHT22;4925;52.588;13.370;2022-07-03T00:37:16;19.60;98.40
9772;DHT22;4925;52.588;13.370;2022-07-03T00:39:43;19.60;98.60
9772;DHT22;4925;52.588;13.370;2022-07-03T00:42:10;19.60;98.90
9772;DHT22;4925;52.588;13.370;2022-07-03T00:47:09;19.60;99.40
9772;DHT22;4925;52.588;13.370;2022-07-03T00:49:35;19.60;99.90
9772;DHT22;4925;52.588;13.370;2022-07-03T00:52:04;19.50;99.80
9772;DHT22;4925;52.588;13.370;2022-07-03T00:54:33;19.50;99.90
9772;DHT22;4925;52.588;13.370;2022-07-03T00:56:59;19.50;99.90
9772;DHT22;4925;52.588;13.370;2022-07-03T00:59:25;19.40;99.90
9772;DHT22;4925;52.588;13.370;2022-07-03T01:01:59;19.40;99.90
9772;DHT22;4925;52.588;13.370;2022-07-03T01:07:12;19.30;99.90
9772;DHT22;4925;52.588;13.370;2022-07-03T01:10:04;19.30;99.90
9772;DHT22;4925;52.588;13.370;2022-07-03T01:12:55;19.30;99.90
9772;DHT22;4925;52.588;13.370;2022-07-03T01:15:48;19.30;99.90
9772;DHT22;4925;52.588;13.370;2022-07-03T01:18:40;19.20;99.90
9772;DHT22;4925;52.588;13.370;2022-07-03T01:21:16;19.20;99.90
9772;DHT22;4925;52.588;13.370;2022-07-03T01:26:24;19.10;99.90
9772;DHT22;4925;52.588;13.370;2022-07-03T01:28:52;19.10;99.90
9772;DHT22;4925;52.588;13.370;2022-07-03T01:31:21;19.00;99.90
9772;DHT22;4925;52.588;13.370;2022-07-03T01:33:50;19.00;99.90
9772;DHT22;4925;52.588;13.370;2022-07-03T01:36:17;19.00;99.90
9772;DHT22;4925;52.588;13.370;2022-07-03T01:38:43;19.00;99.90
9772;DHT22;4925;52.588;13.370;2022-07-03T01:41:11;18.90;99.90
9772;DHT22;4925;52.588;13.370;2022-07-03T01:43:48;18.90;99.90
9772;DHT22;4925;52.588;13.370;2022-07-03T01:46:17;18.90;99.90
9772;DHT22;4925;52.588;13.370;2022-07-03T01:48:44;18.90;99.90
9772;DHT22;4925;52.588;13.370;2022-07-03T01:51:14;18.80;99.90
9772;DHT22;4925;52.588;13.370;2022-07-03T01:53:45;18.80;99.90
9772;DHT22;4925;52.588;13.370;2022-07-03T01:56:12;18.80;99.90
9772;DHT22;4925;52.588;13.370;2022-07-03T01:58:37;18.80;99.90
9772;DHT22;4925;52.588;13.370;2022-07-03T02:01:06;19.10;99.90
9772;DHT22;4925;52.588;13.370;2022-07-03T02:03:35;18.80;99.90
9772;DHT22;4925;52.588;13.370;2022-07-03T02:06:11;18.70;99.90
9772;DHT22;4925;52.588;13.370;2022-07-03T02:09:03;18.70;99.90
9772;DHT22;4925;52.588;13.370;2022-07-03T02:11:34;18.70;99.90
9772;DHT22;4925;52.588;13.370;2022-07-03T02:14:10;18.70;99.90
9772;DHT22;4925;52.588;13.370;2022-07-03T02:19:56;18.60;99.90
9772;DHT22;4925;52.588;13.370;2022-07-03T02:22:28;18.60;99.90
9772;DHT22;4925;52.588;13.370;2022-07-03T02:25:03;18.50;99.90
9772;DHT22;4925;52.588;13.370;2022-07-03T02:27:32;18.50;99.90
9772;DHT22;4925;52.588;13.370;2022-07-03T02:30:05;18.40;99.90
9772;DHT22;4925;52.588;13.370;2022-07-03T02:32:36;18.40;99.90
9772;DHT22;4925;52.588;13.370;2022-07-03T02:35:08;18.40;99.90
9772;DHT22;4925;52.588;13.370;2022-07-03T02:38:06;18.30;99.90
9772;DHT22;4925;52.588;13.370;2022-07-03T02:45:32;18.20;99.90
9772;DHT22;4925;52.588;13.370;2022-07-03T02:48:12;18.30;99.90
9772;DHT22;4925;52.588;13.370;2022-07-03T02:50:46;19.80;99.90
9772;DHT22;4925;52.588;13.370;2022-07-03T02:53:22;18.10;99.90
9772;DHT22;4925;52.588;13.370;2022-07-03T02:55:50;18.10;99.90
9772;DHT22;4925;52.588;13.370;2022-07-03T02:58:41;18.10;99.90
9772;DHT22;4925;52.588;13.370;2022-07-03T03:01:30;18.00;99.90
9772;DHT22;4925;52.588;13.370;2022-07-03T03:07:01;18.00;99.90
9772;DHT22;4925;52.588;13.370;2022-07-03T03:09:32;18.00;99.90
9772;DHT22;4925;52.588;13.370;2022-07-03T03:12:01;18.00;99.90
9772;DHT22;4925;52.588;13.370;2022-07-03T03:14:32;18.00;99.90
9772;DHT22;4925;52.588;13.370;2022-07-03T03:17:05;18.00;99.90
9772;DHT22;4925;52.588;13.370;2022-07-03T03:19:36;18.00;99.90
9772;DHT22;4925;52.588;13.370;2022-07-03T03:22:28;18.30;99.90
9772;DHT22;4925;52.588;13.370;2022-07-03T03:24:53;18.10;99.90
9772;DHT22;4925;52.588;13.370;2022-07-03T03:27:20;18.10;99.90
9772;DHT22;4925;52.588;13.370;2022-07-03T03:29:46;18.10;99.90
9772;DHT22;4925;52.588;13.370;2022-07-03T03:32:13;18.10;99.90
9772;DHT22;4925;52.588;13.370;2022-07-03T03:34:41;18.10;99.90
9772;DHT22;4925;52.588;13.370;2022-07-03T03:37:06;18.20;99.90
9772;DHT22;4925;52.588;13.370;2022-07-03T03:39:33;18.20;99.90
9772;DHT22;4925;52.588;13.370;2022-07-03T03:41:59;18.10;99.90
9772;DHT22;4925;52.588;13.370;2022-07-03T03:44:26;18.20;99.90
9772;DHT22;4925;52.588;13.370;2022-07-03T03:46:52;18.30;99.90
9772;DHT22;4925;52.588;13.370;2022-07-03T03:49:19;18.30;99.90
9772;DHT22;4925;52.588;13.370;2022-07-03T03:51:45;18.30;99.90
9772;DHT22;4925;52.588;13.370;2022-07-03T03:54:11;18.40;99.90
9772;DHT22;4925;52.588;13.370;2022-07-03T03:59:02;18.50;99.90
9772;DHT22;4925;52.588;13.370;2022-07-03T04:01:28;17.80;99.90
9772;DHT22;4925;52.588;13.370;2022-07-03T04:03:53;18.50;99.90
9772;DHT22;4925;52.588;13.370;2022-07-03T04:06:19;18.60;99.90
9772;DHT22;4925;52.588;13.370;2022-07-03T04:08:45;18.60;99.90
9772;DHT22;4925;52.588;13.370;2022-07-03T04:11:11;18.60;99.90
9772;DHT22;4925;52.588;13.370;2022-07-03T04:13:37;18.60;99.90
9772;DHT22;4925;52.588;13.370;2022-07-03T04:16:03;18.70;99.90
9772;DHT22;4925;52.588;13.370;2022-07-03T04:18:29;18.70;99.90
9772;DHT22;4925;52.588;13.370;2022-07-03T04:20:55;18.70;99.90
9772;DHT22;4925;52.588;13.370;2022-07-03T04:23:20;18.80;99.90
9772;DHT22;4925;52.588;13.370;2022-07-03T04:30:39;18.80;99.90
9772;DHT22;4925;52.588;13.370;2022-07-03T04:35:30;19.00;99.90
9772;DHT22;4925;52.588;13.370;2022-07-03T04:37:56;19.00;99.90
9772;DHT22;4925;52.588;13.370;2022-07-03T04:40:22;19.10;99.90
9772;DHT22;4925;52.588;13.370;2022-07-03T04:42:48;19.10;99.90
9772;DHT22;4925;52.588;13.370;2022-07-03T04:47:39;19.40;99.90
9772;DHT22;4925;52.588;13.370;2022-07-03T04:50:05;19.50;99.90
9772;DHT22;4925;52.588;13.370;2022-07-03T04:52:31;19.50;99.90
9772;DHT22;4925;52.588;13.370;2022-07-03T04:54:56;19.50;99.90
9772;DHT22;4925;52.588;13.370;2022-07-03T04:57:22;19.50;99.90
9772;DHT22;4925;52.588;13.370;2022-07-03T04:59:48;19.60;99.90
9772;DHT22;4925;52.588;13.370;2022-07-03T05:02:13;19.60;99.90
9772;DHT22;4925;52.588;13.370;2022-07-03T05:04:39;19.70;99.90
9772;DHT22;4925;52.588;13.370;2022-07-03T05:07:04;21.10;99.90
9772;DHT22;4925;52.588;13.370;2022-07-03T05:09:30;19.90;99.90
9772;DHT22;4925;52.588;13.370;2022-07-03T05:11:55;19.90;99.90
9772;DHT22;4925;52.588;13.370;2022-07-03T05:14:21;20.00;99.90
9772;DHT22;4925;52.588;13.370;2022-07-03T05:16:46;20.00;99.90
9772;DHT22;4925;52.588;13.370;2022-07-03T05:19:12;20.20;99.90
9772;DHT22;4925;52.588;13.370;2022-07-03T05:21:37;20.30;99.90
9772;DHT22;4925;52.588;13.370;2022-07-03T05:24:03;20.40;99.90
9772;DHT22;4925;52.588;13.370;2022-07-03T05:26:28;20.50;99.90
9772;DHT22;4925;52.588;13.370;2022-07-03T05:28:54;20.60;99.90
9772;DHT22;4925;52.588;13.370;2022-07-03T05:31:20;20.60;99.90
9772;DHT22;4925;52.588;13.370;2022-07-03T05:33:45;20.70;99.90
9772;DHT22;4925;52.588;13.370;2022-07-03T05:36:11;20.70;99.90
9772;DHT22;4925;52.588;13.370;2022-07-03T05:38:36;20.90;99.90
9772;DHT22;4925;52.588;13.370;2022-07-03T05:41:20;20.80;99.90
9772;DHT22;4925;52.588;13.370;2022-07-03T05:43:46;20.90;99.90
9772;DHT22;4925;52.588;13.370;2022-07-03T05:46:11;21.00;99.90
9772;DHT22;4925;52.588;13.370;2022-07-03T05:48:37;21.10;99.90
9772;DHT22;4925;52.588;13.370;2022-07-03T05:51:03;21.20;99.90
9772;DHT22;4925;52.588;13.370;2022-07-03T05:53:29;21.20;99.90
9772;DHT22;4925;52.588;13.370;2022-07-03T05:55:55;21.30;99.90
9772;DHT22;4925;52.588;13.370;2022-07-03T05:58:21;21.40;99.90
9772;DHT22;4925;52.588;13.370;2022-07-03T06:00:46;21.40;99.90
9772;DHT22;4925;52.588;13.370;2022-07-03T06:03:12;22.40;99.90
9772;DHT22;4925;52.588;13.370;2022-07-03T06:05:37;21.60;99.90
9772;DHT22;4925;52.588;13.370;2022-07-03T06:08:04;21.60;99.90
9772;DHT22;4925;52.588;13.370;2022-07-03T06:10:29;21.80;99.90
9772;DHT22;4925;52.588;13.370;2022-07-03T06:12:55;21.90;99.90
9772;DHT22;4925;52.588;13.370;2022-07-03T06:15:21;21.70;99.90
9772;DHT22;4925;52.588;13.370;2022-07-03T06:17:47;22.10;99.90
9772;DHT22;4925;52.588;13.370;2022-07-03T06:20:13;22.20;99.90
9772;DHT22;4925;52.588;13.370;2022-07-03T06:22:39;22.20;99.50
9772;DHT22;4925;52.588;13.370;2022-07-03T06:25:05;22.30;99.90
9772;DHT22;4925;52.588;13.370;2022-07-03T06:27:31;22.40;99.90
9772;DHT22;4925;52.588;13.370;2022-07-03T06:29:56;22.60;99.40
9772;DHT22;4925;52.588;13.370;2022-07-03T06:32:22;22.70;99.20
9772;DHT22;4925;52.588;13.370;2022-07-03T06:34:48;22.90;98.80
9772;DHT22;4925;52.588;13.370;2022-07-03T06:37:14;23.00;99.20
9772;DHT22;4925;52.588;13.370;2022-07-03T06:39:40;23.10;98.60
9772;DHT22;4925;52.588;13.370;2022-07-03T06:42:06;23.10;98.00
9772;DHT22;4925;52.588;13.370;2022-07-03T06:44:31;23.10;97.80
9772;DHT22;4925;52.588;13.370;2022-07-03T06:46:57;23.20;97.20
9772;DHT22;4925;52.588;13.370;2022-07-03T06:49:23;23.20;96.80
9772;DHT22;4925;52.588;13.370;2022-07-03T06:51:49;23.20;96.80
9772;DHT22;4925;52.588;13.370;2022-07-03T06:54:16;24.30;97.00
9772;DHT22;4925;52.588;13.370;2022-07-03T06:56:42;23.10;96.50
9772;DHT22;4925;52.588;13.370;2022-07-03T06:59:10;23.30;96.50
9772;DHT22;4925;52.588;13.370;2022-07-03T07:01:36;22.70;96.40
9772;DHT22;4925;52.588;13.370;2022-07-03T07:04:01;23.40;96.90
9772;DHT22;4925;52.588;13.370;2022-07-03T07:06:28;23.60;96.50
9772;DHT22;4925;52.588;13.370;2022-07-03T07:08:53;23.70;96.40
9772;DHT22;4925;52.588;13.370;2022-07-03T07:11:19;23.80;96.30
9772;DHT22;4925;52.588;13.370;2022-07-03T07:13:44;23.90;96.30
9772;DHT22;4925;52.588;13.370;2022-07-03T07:16:10;24.00;95.70
9772;DHT22;4925;52.588;13.370;2022-07-03T07:18:36;24.20;97.20
9772;DHT22;4925;52.588;13.370;2022-07-03T07:21:01;24.30;97.90
9772;DHT22;4925;52.588;13.370;2022-07-03T07:23:27;24.50;97.30
9772;DHT22;4925;52.588;13.370;2022-07-03T07:25:52;24.70;95.50
9772;DHT22;4925;52.588;13.370;2022-07-03T07:28:18;24.90;95.10
9772;DHT22;4925;52.588;13.370;2022-07-03T07:30:43;25.00;94.40
9772;DHT22;4925;52.588;13.370;2022-07-03T07:33:10;25.10;94.40
9772;DHT22;4925;52.588;13.370;2022-07-03T07:35:35;25.30;94.10
9772;DHT22;4925;52.588;13.370;2022-07-03T07:38:01;25.30;93.50
9772;DHT22;4925;52.588;13.370;2022-07-03T07:40:26;25.40;93.30
9772;DHT22;4925;52.588;13.370;2022-07-03T07:42:52;25.50;93.20
9772;DHT22;4925;52.588;13.370;2022-07-03T07:45:18;25.60;93.80
9772;DHT22;4925;52.588;13.370;2022-07-03T07:47:44;25.60;92.70
9772;DHT22;4925;52.588;13.370;2022-07-03T07:50:10;25.70;92.90
9772;DHT22;4925;52.588;13.370;2022-07-03T07:52:36;25.80;92.60
9772;DHT22;4925;52.588;13.370;2022-07-03T07:55:01;25.80;92.10
9772;DHT22;4925;52.588;13.370;2022-07-03T07:57:37;25.80;91.70
9772;DHT22;4925;52.588;13.370;2022-07-03T08:00:11;25.80;91.70
9772;DHT22;4925;52.588;13.370;2022-07-03T08:02:37;25.80;91.50
9772;DHT22;4925;52.588;13.370;2022-07-03T08:05:21;25.80;91.50
9772;DHT22;4925;52.588;13.370;2022-07-03T08:10:35;26.00;92.20
9772;DHT22;4925;52.588;13.370;2022-07-03T08:13:01;26.10;91.90
9772;DHT22;4925;52.588;13.370;2022-07-03T08:15:27;26.20;91.40
9772;DHT22;4925;52.588;13.370;2022-07-03T08:17:52;26.30;90.80
9772;DHT22;4925;52.588;13.370;2022-07-03T08:20:18;26.40;90.50
9772;DHT22;4925;52.588;13.370;2022-07-03T08:22:43;26.30;90.20
9772;DHT22;4925;52.588;13.370;2022-07-03T08:25:09;26.30;90.40
9772;DHT22;4925;52.588;13.370;2022-07-03T08:27:34;26.30;90.10
9772;DHT22;4925;52.588;13.370;2022-07-03T08:30:00;26.30;89.70
9772;DHT22;4925;52.588;13.370;2022-07-03T08:32:25;26.30;88.20
9772;DHT22;4925;52.588;13.370;2022-07-03T08:34:51;26.10;87.30
9772;DHT22;4925;52.588;13.370;2022-07-03T08:37:16;26.10;87.70
9772;DHT22;4925;52.588;13.370;2022-07-03T08:39:42;26.10;86.70
9772;DHT22;4925;52.588;13.370;2022-07-03T08:42:10;26.20;86.00
9772;DHT22;4925;52.588;13.370;2022-07-03T08:44:37;26.10;84.70
9772;DHT22;4925;52.588;13.370;2022-07-03T08:47:03;26.00;85.50
9772;DHT22;4925;52.588;13.370;2022-07-03T08:49:32;26.00;86.20
9772;DHT22;4925;52.588;13.370;2022-07-03T08:52:00;26.10;87.60
9772;DHT22;4925;52.588;13.370;2022-07-03T08:54:26;26.30;87.40
9772;DHT22;4925;52.588;13.370;2022-07-03T08:56:51;26.40;86.20
9772;DHT22;4925;52.588;13.370;2022-07-03T08:59:18;26.50;85.60
9772;DHT22;4925;52.588;13.370;2022-07-03T09:01:46;26.60;85.40
9772;DHT22;4925;52.588;13.370;2022-07-03T09:04:13;26.50;83.90
9772;DHT22;4925;52.588;13.370;2022-07-03T09:06:40;26.50;83.80
9772;DHT22;4925;52.588;13.370;2022-07-03T09:09:07;26.60;83.50
9772;DHT22;4925;52.588;13.370;2022-07-03T09:11:37;26.50;82.30
9772;DHT22;4925;52.588;13.370;2022-07-03T09:14:03;26.60;83.30
9772;DHT22;4925;52.588;13.370;2022-07-03T09:16:33;26.80;83.60
9772;DHT22;4925;52.588;13.370;2022-07-03T09:18:59;26.80;82.00
9772;DHT22;4925;52.588;13.370;2022-07-03T09:21:25;26.90;82.50
9772;DHT22;4925;52.588;13.370;2022-07-03T09:23:50;26.90;82.50
9772;DHT22;4925;52.588;13.370;2022-07-03T09:26:17;27.00;82.90
9772;DHT22;4925;52.588;13.370;2022-07-03T09:28:48;27.10;82.40
9772;DHT22;4925;52.588;13.370;2022-07-03T09:31:18;27.20;81.70
9772;DHT22;4925;52.588;13.370;2022-07-03T09:36:43;27.20;78.60
9772;DHT22;4925;52.588;13.370;2022-07-03T09:39:16;27.30;79.30
9772;DHT22;4925;52.588;13.370;2022-07-03T09:42:02;27.50;78.90
9772;DHT22;4925;52.588;13.370;2022-07-03T09:44:35;27.50;77.40
9772;DHT22;4925;52.588;13.370;2022-07-03T09:47:17;27.80;76.80
9772;DHT22;4925;52.588;13.370;2022-07-03T09:52:31;27.90;75.90
9772;DHT22;4925;52.588;13.370;2022-07-03T09:57:36;28.10;75.40
9772;DHT22;4925;52.588;13.370;2022-07-03T10:00:16;28.40;75.50
9772;DHT22;4925;52.588;13.370;2022-07-03T10:08:12;28.70;72.30
9772;DHT22;4925;52.588;13.370;2022-07-03T10:10:40;28.60;70.80
9772;DHT22;4925;52.588;13.370;2022-07-03T10:13:06;28.60;70.30
9772;DHT22;4925;52.588;13.370;2022-07-03T10:15:34;28.80;69.90
9772;DHT22;4925;52.588;13.370;2022-07-03T10:18:08;28.80;70.40
9772;DHT22;4925;52.588;13.370;2022-07-03T10:20:35;28.80;66.80
9772;DHT22;4925;52.588;13.370;2022-07-03T10:23:02;28.80;67.70
9772;DHT22;4925;52.588;13.370;2022-07-03T10:25:29;28.80;67.10
9772;DHT22;4925;52.588;13.370;2022-07-03T10:27:55;28.90;67.40
9772;DHT22;4925;52.588;13.370;2022-07-03T10:30:22;28.80;68.10
9772;DHT22;4925;52.588;13.370;2022-07-03T10:32:50;29.00;67.70
9772;DHT22;4925;52.588;13.370;2022-07-03T10:35:34;29.20;66.80
9772;DHT22;4925;52.588;13.370;2022-07-03T10:43:36;29.60;67.00
9772;DHT22;4925;52.588;13.370;2022-07-03T10:46:23;29.80;66.20
9772;DHT22;4925;52.588;13.370;2022-07-03T10:48:52;30.10;64.90
9772;DHT22;4925;52.588;13.370;2022-07-03T10:51:21;30.30;64.10
9772;DHT22;4925;52.588;13.370;2022-07-03T10:53:48;30.40;64.00
9772;DHT22;4925;52.588;13.370;2022-07-03T10:56:13;30.60;64.40
9772;DHT22;4925;52.588;13.370;2022-07-03T10:58:59;30.90;61.50
9772;DHT22;4925;52.588;13.370;2022-07-03T11:01:29;31.00;62.40
9772;DHT22;4925;52.588;13.370;2022-07-03T11:04:02;31.10;61.00
9772;DHT22;4925;52.588;13.370;2022-07-03T11:09:15;31.20;60.60
9772;DHT22;4925;52.588;13.370;2022-07-03T11:11:47;31.10;61.30
9772;DHT22;4925;52.588;13.370;2022-07-03T11:14:26;31.50;61.30
9772;DHT22;4925;52.588;13.370;2022-07-03T11:19:44;32.60;58.50
9772;DHT22;4925;52.588;13.370;2022-07-03T11:25:13;33.10;56.70
9772;DHT22;4925;52.588;13.370;2022-07-03T11:27:38;33.30;56.30
9772;DHT22;4925;52.588;13.370;2022-07-03T11:30:04;33.40;55.60
9772;DHT22;4925;52.588;13.370;2022-07-03T11:32:49;33.70;55.30
9772;DHT22;4925;52.588;13.370;2022-07-03T11:35:42;33.20;54.20
9772;DHT22;4925;52.588;13.370;2022-07-03T11:38:08;33.10;53.80
9772;DHT22;4925;52.588;13.370;2022-07-03T11:40:39;33.20;54.40
9772;DHT22;4925;52.588;13.370;2022-07-03T11:43:06;33.70;54.20
9772;DHT22;4925;52.588;13.370;2022-07-03T11:45:32;35.30;54.70
9772;DHT22;4925;52.588;13.370;2022-07-03T11:50:41;34.20;51.90
9772;DHT22;4925;52.588;13.370;2022-07-03T11:56:02;34.70;51.90
9772;DHT22;4925;52.588;13.370;2022-07-03T11:58:45;34.80;50.70
9772;DHT22;4925;52.588;13.370;2022-07-03T12:01:34;34.80;51.40
9772;DHT22;4925;52.588;13.370;2022-07-03T12:04:04;34.60;50.60
9772;DHT22;4925;52.588;13.370;2022-07-03T12:06:34;34.20;50.80
9772;DHT22;4925;52.588;13.370;2022-07-03T12:09:01;34.00;51.10
9772;DHT22;4925;52.588;13.370;2022-07-03T12:11:27;34.00;51.30
9772;DHT22;4925;52.588;13.370;2022-07-03T12:13:52;34.40;50.50
9772;DHT22;4925;52.588;13.370;2022-07-03T12:16:18;35.10;50.00
9772;DHT22;4925;52.588;13.370;2022-07-03T12:18:51;35.40;49.10
9772;DHT22;4925;52.588;13.370;2022-07-03T12:21:18;36.10;48.70
9772;DHT22;4925;52.588;13.370;2022-07-03T12:23:53;35.90;47.80
9772;DHT22;4925;52.588;13.370;2022-07-03T12:26:32;35.90;47.80
9772;DHT22;4925;52.588;13.370;2022-07-03T12:29:01;35.80;47.30
9772;DHT22;4925;52.588;13.370;2022-07-03T12:31:28;35.80;47.20
9772;DHT22;4925;52.588;13.370;2022-07-03T12:34:00;35.60;46.50
9772;DHT22;4925;52.588;13.370;2022-07-03T12:36:27;35.90;47.20
9772;DHT22;4925;52.588;13.370;2022-07-03T12:38:57;34.80;47.30
9772;DHT22;4925;52.588;13.370;2022-07-03T12:41:23;34.80;47.90
9772;DHT22;4925;52.588;13.370;2022-07-03T12:43:51;34.60;48.40
9772;DHT22;4925;52.588;13.370;2022-07-03T12:46:24;34.30;48.00
9772;DHT22;4925;52.588;13.370;2022-07-03T12:48:52;33.90;48.20
9772;DHT22;4925;52.588;13.370;2022-07-03T12:54:31;33.10;49.20
9772;DHT22;4925;52.588;13.370;2022-07-03T12:57:11;32.60;50.00
9772;DHT22;4925;52.588;13.370;2022-07-03T13:00:05;32.20;50.50
9772;DHT22;4925;52.588;13.370;2022-07-03T13:02:35;32.30;50.90
9772;DHT22;4925;52.588;13.370;2022-07-03T13:05:13;32.20;50.60
9772;DHT22;4925;52.588;13.370;2022-07-03T13:07:40;32.10;50.70
9772;DHT22;4925;52.588;13.370;2022-07-03T13:10:06;31.90;50.80
9772;DHT22;4925;52.588;13.370;2022-07-03T13:12:32;31.90;50.40
9772;DHT22;4925;52.588;13.370;2022-07-03T13:15:01;31.70;51.10
9772;DHT22;4925;52.588;13.370;2022-07-03T13:20:18;31.50;51.30
9772;DHT22;4925;52.588;13.370;2022-07-03T13:22:43;31.30;51.20
9772;DHT22;4925;52.588;13.370;2022-07-03T13:25:09;33.40;53.60
9772;DHT22;4925;52.588;13.370;2022-07-03T13:27:34;31.10;52.30
9772;DHT22;4925;52.588;13.370;2022-07-03T13:29:59;31.30;52.40
9772;DHT22;4925;52.588;13.370;2022-07-03T13:34:51;31.90;50.90
9772;DHT22;4925;52.588;13.370;2022-07-03T13:37:16;31.90;51.20
9772;DHT22;4925;52.588;13.370;2022-07-03T13:39:42;31.80;51.10
9772;DHT22;4925;52.588;13.370;2022-07-03T13:42:07;31.70;51.20
9772;DHT22;4925;52.588;13.370;2022-07-03T13:44:36;31.50;51.10
9772;DHT22;4925;52.588;13.370;2022-07-03T13:47:02;31.20;51.00
9772;DHT22;4925;52.588;13.370;2022-07-03T13:49:27;31.00;51.10
9772;DHT22;4925;52.588;13.370;2022-07-03T13:51:53;31.10;51.30
9772;DHT22;4925;52.588;13.370;2022-07-03T13:54:19;31.20;51.00
9772;DHT22;4925;52.588;13.370;2022-07-03T13:56:44;31.70;51.00
9772;DHT22;4925;52.588;13.370;2022-07-03T13:59:10;31.20;50.90
9772;DHT22;4925;52.588;13.370;2022-07-03T14:01:37;31.20;51.10
9772;DHT22;4925;52.588;13.370;2022-07-03T14:04:03;31.30;51.70
9772;DHT22;4925;52.588;13.370;2022-07-03T14:06:29;31.30;51.20
9772;DHT22;4925;52.588;13.370;2022-07-03T14:08:54;29.60;50.10
9772;DHT22;4925;52.588;13.370;2022-07-03T14:11:20;31.40;51.20
9772;DHT22;4925;52.588;13.370;2022-07-03T14:13:46;31.30;51.10
9772;DHT22;4925;52.588;13.370;2022-07-03T14:16:12;31.40;51.10
9772;DHT22;4925;52.588;13.370;2022-07-03T14:18:37;31.40;50.40
9772;DHT22;4925;52.588;13.370;2022-07-03T14:21:03;31.40;50.90
9772;DHT22;4925;52.588;13.370;2022-07-03T14:23:31;31.50;50.30
9772;DHT22;4925;52.588;13.370;2022-07-03T14:25:58;31.40;50.50
9772;DHT22;4925;52.588;13.370;2022-07-03T14:28:24;31.00;49.70
9772;DHT22;4925;52.588;13.370;2022-07-03T14:31:08;30.90;50.20
9772;DHT22;4925;52.588;13.370;2022-07-03T14:33:49;30.90;50.90
9772;DHT22;4925;52.588;13.370;2022-07-03T14:36:15;30.50;50.60
9772;DHT22;4925;52.588;13.370;2022-07-03T14:38:41;30.40;50.40
9772;DHT22;4925;52.588;13.370;2022-07-03T14:41:06;30.30;50.90
9772;DHT22;4925;52.588;13.370;2022-07-03T14:43:32;30.30;51.40
9772;DHT22;4925;52.588;13.370;2022-07-03T14:45:58;30.30;51.90
9772;DHT22;4925;52.588;13.370;2022-07-03T14:48:24;30.30;51.50
9772;DHT22;4925;52.588;13.370;2022-07-03T14:50:51;30.30;52.00
9772;DHT22;4925;52.588;13.370;2022-07-03T14:53:17;30.30;52.20
9772;DHT22;4925;52.588;13.370;2022-07-03T14:55:43;30.40;52.10
9772;DHT22;4925;52.588;13.370;2022-07-03T14:58:17;30.40;52.40
9772;DHT22;4925;52.588;13.370;2022-07-03T15:00:51;30.30;52.30
9772;DHT22;4925;52.588;13.370;2022-07-03T15:03:24;30.40;52.30
9772;DHT22;4925;52.588;13.370;2022-07-03T15:05:55;30.50;51.50
9772;DHT22;4925;52.588;13.370;2022-07-03T15:10:56;30.70;52.70
9772;DHT22;4925;52.588;13.370;2022-07-03T15:13:25;30.30;52.20
9772;DHT22;4925;52.588;13.370;2022-07-03T15:15:52;30.30;52.30
9772;DHT22;4925;52.588;13.370;2022-07-03T15:18:19;30.50;52.30
9772;DHT22;4925;52.588;13.370;2022-07-03T15:20:46;30.40;52.80
9772;DHT22;4925;52.588;13.370;2022-07-03T15:23:12;30.60;53.00
9772;DHT22;4925;52.588;13.370;2022-07-03T15:25:38;30.70;52.00
9772;DHT22;4925;52.588;13.370;2022-07-03T15:28:08;30.70;51.80
9772;DHT22;4925;52.588;13.370;2022-07-03T15:30:34;31.70;52.10
9772;DHT22;4925;52.588;13.370;2022-07-03T15:33:00;30.70;51.00
9772;DHT22;4925;52.588;13.370;2022-07-03T15:35:27;30.70;51.30
9772;DHT22;4925;52.588;13.370;2022-07-03T15:38:12;30.70;51.20
9772;DHT22;4925;52.588;13.370;2022-07-03T15:46:05;30.60;51.00
9772;DHT22;4925;52.588;13.370;2022-07-03T15:51:38;30.60;51.20
9772;DHT22;4925;52.588;13.370;2022-07-03T15:54:09;30.60;51.00
9772;DHT22;4925;52.588;13.370;2022-07-03T15:56:37;30.60;50.90
9772;DHT22;4925;52.588;13.370;2022-07-03T15:59:12;30.60;51.30
9772;DHT22;4925;52.588;13.370;2022-07-03T16:01:53;30.60;50.90
9772;DHT22;4925;52.588;13.370;2022-07-03T16:05:05;30.60;51.30
9772;DHT22;4925;52.588;13.370;2022-07-03T16:07:34;30.60;51.40
9772;DHT22;4925;52.588;13.370;2022-07-03T16:10:06;30.60;50.70
9772;DHT22;4925;52.588;13.370;2022-07-03T16:12:33;30.80;51.00
9772;DHT22;4925;52.588;13.370;2022-07-03T16:15:00;30.90;51.00
9772;DHT22;4925;52.588;13.370;2022-07-03T16:17:26;31.00;50.90
9772;DHT22;4925;52.588;13.370;2022-07-03T16:19:52;31.00;50.60
9772;DHT22;4925;52.588;13.370;2022-07-03T16:22:18;31.10;50.40
9772;DHT22;4925;52.588;13.370;2022-07-03T16:24:45;31.10;50.50
9772;DHT22;4925;52.588;13.370;2022-07-03T16:27:14;31.10;50.70
9772;DHT22;4925;52.588;13.370;2022-07-03T16:29:40;31.10;50.10
9772;DHT22;4925;52.588;13.370;2022-07-03T16:32:13;31.20;49.60
9772;DHT22;4925;52.588;13.370;2022-07-03T16:35:00;31.20;50.20
9772;DHT22;4925;52.588;13.370;2022-07-03T16:37:37;31.20;50.40
9772;DHT22;4925;52.588;13.370;2022-07-03T16:40:05;31.30;49.90
9772;DHT22;4925;52.588;13.370;2022-07-03T16:42:33;31.20;49.70
9772;DHT22;4925;52.588;13.370;2022-07-03T16:45:06;31.30;49.60
9772;DHT22;4925;52.588;13.370;2022-07-03T16:47:38;31.30;50.50
9772;DHT22;4925;52.588;13.370;2022-07-03T16:50:05;31.30;50.60
9772;DHT22;4925;52.588;13.370;2022-07-03T16:52:32;31.40;50.60
9772;DHT22;4925;52.588;13.370;2022-07-03T16:54:58;31.40;50.20
9772;DHT22;4925;52.588;13.370;2022-07-03T16:57:24;31.50;50.10
9772;DHT22;4925;52.588;13.370;2022-07-03T16:59:50;31.50;50.30
9772;DHT22;4925;52.588;13.370;2022-07-03T17:02:17;31.50;50.10
9772;DHT22;4925;52.588;13.370;2022-07-03T17:04:43;31.40;50.00
9772;DHT22;4925;52.588;13.370;2022-07-03T17:07:09;31.40;49.60
9772;DHT22;4925;52.588;13.370;2022-07-03T17:09:37;31.30;49.90
9772;DHT22;4925;52.588;13.370;2022-07-03T17:12:04;31.20;49.60
9772;DHT22;4925;52.588;13.370;2022-07-03T17:14:30;31.20;50.00
9772;DHT22;4925;52.588;13.370;2022-07-03T17:17:06;31.00;50.20
9772;DHT22;4925;52.588;13.370;2022-07-03T17:19:45;31.00;49.50
9772;DHT22;4925;52.588;13.370;2022-07-03T17:22:13;30.90;50.20